KSNH

Savannah-Hardin County Airport

Savannah, Tennessee, USA
METAR KSNH 182135Z AUTO 26007KT 10SM FEW034 31/22 A2992 RMK A01
Observed Flight Rules
Aug-18 @ 21:35 UTC (17 minutes ago) Visual Flight Rules
Wind Visibility Clouds
260° at 7 knots 10 miles
  • Few at 3,400' AGL
Temperatures Readings
Current 31°C / 88°F
Dewpoint 22°C / 72°F
Humidity 59%
Altimeter 29.92" Hg
Pressure 1013 hPa
Elevation 144
METAR KSNH 182135Z AUTO 26007KT 10SM FEW034 31/22 A2992 RMK A01
Observed Flight Rules
Aug-18 @ 21:35 UTC
(17 minutes ago)
VFR
Wind Visibility
260° at 7 knots 10 miles
Clouds
  • Few at 3,400' AGL
Temperature Dewpoint
31°C / 88°F 22°C / 72°F
Humidity Altimeter Pressure
59% 29.92" Hg 1013 hPa